Current Conditions
Clear
Conditions



Pressure
30.62 (inHG) - 1036.92 (mb)
Visibility

10.0 (mimiles) - 16.1 (km)
   Temperature
16  °F
-9°C
12  °F
Dewpoint
86  %
 Humidity
   Wind Speed
5  mph
4  kts
8  km/h
2.2  m/s
   Wind Direction
 280°
Due West
   Airport Data
KORD
Location Chicago O'hare International 40 mi (64.36 km)
Metar :KORD 210751Z 28004KT 10SM CLR M09/M11 A3062 RMK AO2 SLP379 I1000 T10891111 $
Tue 21st January 02:51 am
   Raw Metar Info
Raw METAR is the most common format in the world for the transmission of observational weather data. It is highly standardized through the International Civil Aviation Organization (ICAO), which allows it to be understood throughout most of the world.
   API Info
Data Provided by
https://www.checkwx.com/weather/KORD
   © Info
CSS/SVG/PHP scripts were developed by weather34.com for use in the weather34 template © 2015-2020

Guide Info provided by Metar-Wikipedia